Time;durP1;ratioP1;P1;durP2;ratioP2;P2;SDS_P1;SDS_P2;PMS_P1;PMS_P2;Temp;Humidity;BMP_temperature;BMP_pressure;BME280_temperature;BME280_humidity;BME280_pressure;Samples;Min_cycle;Max_cycle;Signal;HPM_P1;HPM_P2
2021/05/12 00:00:20;;;;;;;11.38;6.82;;;11.50;99.90;;;;;;5019535;28;20050;-95
2021/05/12 00:02:47;;;;;;;13.25;7.03;;;11.50;99.90;;;;;;5036045;28;20140;-96
2021/05/12 00:05:15;;;;;;;13.65;7.40;;;11.60;99.90;;;;;;5018961;28;20053;-96
2021/05/12 00:07:42;;;;;;;12.88;7.38;;;11.50;99.90;;;;;;5041364;28;20061;-96
2021/05/12 00:10:11;;;;;;;11.27;6.90;;;11.60;99.90;;;;;;5023483;28;20050;-95
2021/05/12 00:12:39;;;;;;;11.43;6.43;;;11.50;99.90;;;;;;5035067;28;20050;-95
2021/05/12 00:15:09;;;;;;;13.27;7.50;;;11.60;99.90;;;;;;5034804;28;20137;-95
2021/05/12 00:17:38;;;;;;;12.27;7.45;;;11.60;99.90;;;;;;5034469;28;20042;-96
2021/05/12 00:20:07;;;;;;;13.25;8.07;;;11.60;99.90;;;;;;5034361;28;20046;-95
2021/05/12 00:25:11;;;;;;;14.23;8.05;;;11.50;99.90;;;;;;5051307;28;20046;-95
2021/05/12 00:27:39;;;;;;;16.27;8.43;;;11.50;99.90;;;;;;5032518;28;20054;-96
2021/05/12 00:30:16;;;;;;;14.20;8.15;;;11.50;99.90;;;;;;5044268;28;20042;-95
2021/05/12 00:32:44;;;;;;;15.57;8.98;;;11.50;99.90;;;;;;5036571;28;20532;-95
2021/05/12 00:35:13;;;;;;;14.85;9.18;;;11.50;99.90;;;;;;5002680;28;20072;-94
2021/05/12 00:37:40;;;;;;;17.30;9.30;;;11.50;99.90;;;;;;5036704;28;20058;-95
2021/05/12 00:40:10;;;;;;;12.85;8.90;;;11.50;99.90;;;;;;5036421;28;20050;-95
2021/05/12 00:42:37;;;;;;;14.80;9.55;;;11.50;99.90;;;;;;5022134;28;20099;-96
2021/05/12 00:45:06;;;;;;;15.63;9.13;;;11.50;99.90;;;;;;5039205;28;20096;-94
2021/05/12 00:47:33;;;;;;;15.98;10.00;;;11.40;99.90;;;;;;5017240;28;20081;-94
2021/05/12 00:50:00;;;;;;;17.35;9.75;;;11.40;99.90;;;;;;5034309;28;20129;-95
2021/05/12 00:52:28;;;;;;;15.65;9.27;;;11.40;99.90;;;;;;5017272;28;20053;-95
2021/05/12 00:54:55;;;;;;;14.45;9.85;;;11.40;99.90;;;;;;5001512;28;20506;-95
2021/05/12 00:57:23;;;;;;;13.95;9.10;;;11.40;99.90;;;;;;5017168;28;20065;-95
2021/05/12 00:59:52;;;;;;;16.83;9.63;;;11.40;99.90;;;;;;5032885;28;20049;-95
2021/05/12 01:02:21;;;;;;;14.52;8.98;;;11.40;99.90;;;;;;5001284;28;20129;-95
2021/05/12 01:04:48;;;;;;;17.25;9.52;;;11.50;99.90;;;;;;5033267;28;20076;-94
2021/05/12 01:07:15;;;;;;;13.65;9.63;;;11.40;99.90;;;;;;5017208;28;20054;-94
2021/05/12 01:09:42;;;;;;;14.95;9.77;;;11.40;99.90;;;;;;5001337;28;20058;-95
2021/05/12 01:12:09;;;;;;;14.90;9.05;;;11.40;99.90;;;;;;5017680;28;20060;-95
2021/05/12 01:14:36;;;;;;;15.38;9.50;;;11.40;99.90;;;;;;5033080;28;20096;-96
2021/05/12 01:17:03;;;;;;;16.92;9.80;;;11.40;99.90;;;;;;5001151;28;20137;-95
2021/05/12 01:19:30;;;;;;;13.70;9.95;;;11.40;99.90;;;;;;5033027;28;20096;-95
2021/05/12 01:21:57;;;;;;;14.30;9.02;;;11.30;99.90;;;;;;5017420;28;20045;-95
2021/05/12 01:24:24;;;;;;;18.10;9.95;;;11.40;99.90;;;;;;5017030;28;20100;-95
2021/05/12 01:26:51;;;;;;;15.43;9.70;;;11.30;99.90;;;;;;5017069;28;20057;-94
2021/05/12 01:29:18;;;;;;;14.98;9.75;;;11.40;99.90;;;;;;5016487;28;20042;-94
2021/05/12 01:31:45;;;;;;;16.23;10.52;;;11.30;99.90;;;;;;5050312;28;20042;-94
2021/05/12 01:34:17;;;;;;;17.00;10.32;;;11.40;99.90;;;;;;5032992;28;20046;-94
2021/05/12 01:36:47;;;;;;;16.95;10.05;;;11.40;99.90;;;;;;5016565;28;20397;-94
2021/05/12 01:39:17;;;;;;;17.80;10.73;;;11.40;99.90;;;;;;5016675;28;20046;-95
2021/05/12 01:41:44;;;;;;;16.48;10.27;;;11.40;99.90;;;;;;5033214;28;20478;-96
2021/05/12 01:44:12;;;;;;;16.58;10.20;;;11.40;99.90;;;;;;5015846;28;20132;-95
2021/05/12 01:46:42;;;;;;;18.77;12.05;;;11.40;99.90;;;;;;5031745;28;20045;-95
2021/05/12 01:49:10;;;;;;;18.52;12.15;;;11.30;99.90;;;;;;5049945;28;20042;-94
2021/05/12 01:51:38;;;;;;;20.08;12.95;;;11.30;99.90;;;;;;5016223;28;20478;-94
2021/05/12 01:54:08;;;;;;;19.02;12.13;;;11.30;99.90;;;;;;5032495;28;20049;-94
2021/05/12 01:56:41;;;;;;;20.15;12.05;;;11.30;99.90;;;;;;5031961;28;20038;-94
2021/05/12 01:59:10;;;;;;;20.38;12.52;;;11.30;99.90;;;;;;5000712;28;20483;-94
2021/05/12 02:01:37;;;;;;;20.98;12.50;;;11.30;99.90;;;;;;5015785;28;20048;-94
2021/05/12 02:04:07;;;;;;;21.52;13.05;;;11.30;99.90;;;;;;5032371;28;20049;-94
2021/05/12 02:06:35;;;;;;;19.58;12.73;;;11.30;99.90;;;;;;5015972;28;20100;-94
2021/05/12 02:09:06;;;;;;;21.58;14.07;;;11.30;99.90;;;;;;5032293;28;20042;-95
2021/05/12 02:11:33;;;;;;;26.65;13.55;;;11.30;99.90;;;;;;5031848;28;20046;-94
2021/05/12 02:14:00;;;;;;;23.52;14.15;;;11.30;99.90;;;;;;5016156;28;20042;-94
2021/05/12 02:16:27;;;;;;;23.27;14.25;;;11.30;99.90;;;;;;4999902;28;20561;-94
2021/05/12 02:18:54;;;;;;;22.67;13.57;;;11.30;99.90;;;;;;5032586;28;20042;-93
2021/05/12 02:21:21;;;;;;;24.33;14.27;;;11.30;99.90;;;;;;5016182;28;20398;-95
2021/05/12 02:23:47;;;;;;;25.65;15.23;;;11.30;99.90;;;;;;5031353;28;20046;-95
2021/05/12 02:26:14;;;;;;;21.55;14.70;;;11.30;99.90;;;;;;5000054;28;20076;-94
2021/05/12 02:28:41;;;;;;;27.60;15.02;;;11.30;99.90;;;;;;5031295;28;20092;-93
2021/05/12 02:31:08;;;;;;;29.52;16.48;;;11.30;99.90;;;;;;5015542;28;20077;-93
2021/05/12 02:33:35;;;;;;;27.83;16.48;;;11.30;99.90;;;;;;5048610;28;20409;-93
2021/05/12 02:36:01;;;;;;;29.38;16.65;;;11.30;99.90;;;;;;5015369;28;20054;-94
2021/05/12 02:38:30;;;;;;;32.35;17.73;;;11.30;99.90;;;;;;5015231;28;20553;-94
2021/05/12 02:40:56;;;;;;;34.22;17.00;;;11.30;99.90;;;;;;5016006;28;20052;-93
2021/05/12 02:43:23;;;;;;;32.83;18.98;;;11.30;99.90;;;;;;5015844;28;20041;-94
2021/05/12 02:45:50;;;;;;;39.50;20.70;;;11.30;99.90;;;;;;5015335;28;20040;-95
2021/05/12 02:48:17;;;;;;;39.13;21.23;;;11.20;99.90;;;;;;5000017;28;20078;-95
2021/05/12 02:50:45;;;;;;;39.88;20.98;;;11.20;99.90;;;;;;5015720;28;20081;-95
2021/05/12 02:53:13;;;;;;;37.75;21.23;;;11.20;99.90;;;;;;5032346;28;20045;-95
2021/05/12 02:55:40;;;;;;;36.83;20.38;;;11.10;99.90;;;;;;5000470;28;20053;-94
2021/05/12 02:58:08;;;;;;;46.10;22.10;;;11.20;99.90;;;;;;5031816;28;20122;-94
2021/05/12 03:00:38;;;;;;;39.10;21.75;;;11.20;99.90;;;;;;5048406;28;20100;-94
2021/05/12 03:03:06;;;;;;;37.38;22.77;;;11.20;99.90;;;;;;5031855;28;20046;-95
2021/05/12 03:05:36;;;;;;;46.50;23.15;;;11.20;99.90;;;;;;5000055;28;20060;-95
2021/05/12 03:08:04;;;;;;;40.50;23.55;;;11.20;99.90;;;;;;5035471;28;20056;-96
2021/05/12 03:10:34;;;;;;;36.85;21.92;;;11.20;99.90;;;;;;5003199;28;20056;-95
2021/05/12 03:13:03;;;;;;;43.40;23.50;;;11.30;99.90;;;;;;5004495;28;20486;-95
2021/05/12 03:15:31;;;;;;;43.95;22.77;;;11.30;99.90;;;;;;5019343;28;20078;-94
2021/05/12 03:17:58;;;;;;;41.58;22.90;;;11.20;99.90;;;;;;5035318;28;20397;-95
2021/05/12 03:20:26;;;;;;;40.17;22.98;;;11.20;99.90;;;;;;5036172;28;20489;-95
2021/05/12 03:22:54;;;;;;;41.67;22.90;;;11.20;99.90;;;;;;5035512;28;20046;-94
2021/05/12 03:25:21;;;;;;;46.53;25.40;;;11.20;99.90;;;;;;5051685;28;20394;-95
2021/05/12 03:27:48;;;;;;;44.85;24.02;;;11.30;99.90;;;;;;5052268;28;20100;-94
2021/05/12 03:30:28;;;;;;;43.67;24.20;;;11.30;99.90;;;;;;5051916;28;20041;-95
2021/05/12 03:32:57;;;;;;;48.60;23.83;;;11.30;99.90;;;;;;5051483;28;20049;-94
2021/05/12 03:35:24;;;;;;;44.58;23.83;;;11.30;99.90;;;;;;5052645;28;20132;-94
2021/05/12 03:37:51;;;;;;;41.92;23.80;;;11.20;99.90;;;;;;5034810;28;20596;-94
2021/05/12 03:40:18;;;;;;;42.25;24.17;;;11.30;99.90;;;;;;5035177;28;20046;-94
2021/05/12 03:42:45;;;;;;;43.50;23.95;;;11.30;99.90;;;;;;5050953;28;20482;-95
2021/05/12 03:45:13;;;;;;;41.42;23.42;;;11.30;99.90;;;;;;5052761;28;20069;-95
2021/05/12 03:47:39;;;;;;;43.03;24.63;;;11.20;99.90;;;;;;5018986;28;20041;-95
2021/05/12 03:50:11;;;;;;;40.13;23.00;;;11.20;99.90;;;;;;5018671;28;20415;-94
2021/05/12 03:52:38;;;;;;;43.28;23.52;;;11.30;99.90;;;;;;5033914;28;20475;-95
2021/05/12 03:55:07;;;;;;;45.65;24.42;;;11.20;99.90;;;;;;5035305;28;20042;-95
2021/05/12 03:57:34;;;;;;;38.63;23.25;;;11.20;99.90;;;;;;5038133;28;20077;-90
2021/05/12 04:00:01;;;;;;;43.20;23.73;;;11.20;99.90;;;;;;5020095;28;20046;-94
2021/05/12 04:02:28;;;;;;;43.97;23.88;;;11.20;99.90;;;;;;5019118;28;20096;-93
2021/05/12 04:04:55;;;;;;;36.40;21.95;;;11.20;99.90;;;;;;5033503;28;20057;-94
2021/05/12 04:07:22;;;;;;;39.55;22.63;;;11.30;99.90;;;;;;5018555;28;20081;-94
2021/05/12 04:09:49;;;;;;;38.03;21.98;;;11.20;99.90;;;;;;5018038;28;20050;-94
2021/05/12 04:12:16;;;;;;;38.58;21.42;;;11.20;99.90;;;;;;5019129;28;20082;-94
2021/05/12 04:14:43;;;;;;;34.88;20.55;;;11.20;99.90;;;;;;5036831;28;20050;-95
2021/05/12 04:17:10;;;;;;;34.80;19.83;;;11.20;99.90;;;;;;5002612;28;20049;-93
2021/05/12 04:19:37;;;;;;;35.42;20.40;;;11.30;99.90;;;;;;5006667;28;20050;-92
2021/05/12 04:22:04;;;;;;;37.13;19.75;;;11.10;99.90;;;;;;5057554;28;20588;-94
2021/05/12 04:24:31;;;;;;;34.30;19.83;;;11.20;99.90;;;;;;5036964;28;20207;-94
2021/05/12 04:26:58;;;;;;;35.63;20.13;;;11.20;99.90;;;;;;5035106;28;20053;-95
2021/05/12 04:29:28;;;;;;;33.22;19.40;;;11.10;99.90;;;;;;5037816;28;20038;-95
2021/05/12 04:31:57;;;;;;;35.22;19.90;;;11.10;99.90;;;;;;5038337;28;20120;-95
2021/05/12 04:34:23;;;;;;;34.53;18.80;;;11.20;99.90;;;;;;5021480;28;20449;-95
2021/05/12 04:36:50;;;;;;;30.08;19.73;;;11.10;99.90;;;;;;5011072;28;20046;-94
2021/05/12 04:39:17;;;;;;;33.42;18.77;;;11.20;99.90;;;;;;5023510;28;20050;-94
2021/05/12 04:41:44;;;;;;;30.58;17.73;;;11.20;99.90;;;;;;5032180;28;20096;-95
2021/05/12 04:44:11;;;;;;;33.13;17.95;;;11.10;99.90;;;;;;5041248;28;20059;-94
2021/05/12 04:46:40;;;;;;;27.40;17.15;;;11.10;99.90;;;;;;5039475;28;20054;-94
2021/05/12 04:49:08;;;;;;;33.25;18.50;;;11.10;99.90;;;;;;5037280;28;20132;-94
2021/05/12 04:51:35;;;;;;;31.67;18.02;;;11.00;99.90;;;;;;5021966;28;20099;-94
2021/05/12 04:54:06;;;;;;;29.75;17.30;;;11.20;99.90;;;;;;5035334;28;20042;-94
2021/05/12 04:56:33;;;;;;;30.58;17.02;;;11.10;99.90;;;;;;5041522;28;20042;-94
2021/05/12 04:59:01;;;;;;;27.60;17.27;;;11.10;99.90;;;;;;5056233;28;20045;-95
2021/05/12 05:01:29;;;;;;;30.75;17.25;;;11.20;99.90;;;;;;5039336;28;20046;-94
2021/05/12 05:03:58;;;;;;;32.67;17.38;;;11.20;99.90;;;;;;5035985;28;20470;-93
2021/05/12 05:06:33;;;;;;;27.50;16.35;;;11.00;99.90;;;;;;5042711;28;20044;-94
2021/05/12 05:09:02;;;;;;;26.92;16.85;;;11.20;99.90;;;;;;5039253;28;20053;-94
2021/05/12 05:11:34;;;;;;;31.88;17.05;;;11.20;99.90;;;;;;5056018;28;20105;-95
2021/05/12 05:14:02;;;;;;;31.25;18.00;;;11.20;99.90;;;;;;5054346;28;20117;-94
2021/05/12 05:16:29;;;;;;;30.83;17.23;;;11.30;99.90;;;;;;5059128;28;20121;-95
2021/05/12 05:18:58;;;;;;;31.88;17.00;;;11.30;99.90;;;;;;5060309;28;20054;-95
2021/05/12 05:21:26;;;;;;;27.45;16.80;;;11.60;99.90;;;;;;5012022;28;20482;-95
2021/05/12 05:23:54;;;;;;;30.42;17.10;;;11.30;99.90;;;;;;5075509;28;20046;-96
2021/05/12 05:26:21;;;;;;;25.77;16.42;;;11.30;99.90;;;;;;5056555;28;20037;-95
2021/05/12 05:28:50;;;;;;;30.35;17.35;;;11.40;99.90;;;;;;5055197;28;20045;-95
2021/05/12 05:31:17;;;;;;;29.52;17.25;;;11.40;99.90;;;;;;5057606;28;20033;-95
2021/05/12 05:33:44;;;;;;;32.38;16.67;;;11.40;99.90;;;;;;5042298;28;20046;-95
2021/05/12 05:36:11;;;;;;;31.70;17.88;;;11.40;99.90;;;;;;5041391;28;20113;-95
2021/05/12 05:38:38;;;;;;;28.13;16.30;;;11.40;99.90;;;;;;5041856;28;20046;-95
2021/05/12 05:41:05;;;;;;;29.20;16.40;;;11.40;99.90;;;;;;5024209;28;20061;-94
2021/05/12 05:43:34;;;;;;;26.88;16.08;;;11.40;99.90;;;;;;5057531;28;20080;-94
2021/05/12 05:46:01;;;;;;;29.20;17.45;;;11.40;99.90;;;;;;5040534;28;20478;-96
2021/05/12 05:48:28;;;;;;;28.58;16.40;;;11.40;99.90;;;;;;5041159;28;20065;-94
2021/05/12 05:50:56;;;;;;;31.00;17.55;;;11.40;99.90;;;;;;5055171;28;20053;-94
2021/05/12 05:53:23;;;;;;;26.38;15.57;;;11.40;99.90;;;;;;5054944;28;20080;-94
2021/05/12 05:55:50;;;;;;;27.10;16.15;;;11.40;99.90;;;;;;5054572;28;20075;-94
2021/05/12 05:58:18;;;;;;;28.25;15.40;;;11.50;99.90;;;;;;5022039;28;20049;-94
2021/05/12 06:00:46;;;;;;;23.83;15.85;;;11.50;99.90;;;;;;5034663;28;20273;-95
2021/05/12 06:03:13;;;;;;;22.92;14.60;;;11.40;99.90;;;;;;5022866;28;20046;-94
2021/05/12 06:05:46;;;;;;;23.98;15.20;;;11.50;99.90;;;;;;5034325;28;20045;-94
2021/05/12 06:08:13;;;;;;;23.52;14.82;;;11.50;99.90;;;;;;5040834;28;20500;-96
2021/05/12 06:10:41;;;;;;;21.98;14.20;;;11.50;99.90;;;;;;5048179;28;20082;-96
2021/05/12 06:13:08;;;;;;;20.15;13.70;;;11.70;99.90;;;;;;5031728;28;20045;-94
2021/05/12 06:15:37;;;;;;;21.33;14.07;;;11.60;99.90;;;;;;5035021;28;20036;-93
2021/05/12 06:18:04;;;;;;;21.42;13.70;;;11.90;99.90;;;;;;5048816;28;20129;-94
2021/05/12 06:20:30;;;;;;;20.45;13.27;;;11.90;99.90;;;;;;5039693;28;20049;-93
2021/05/12 06:23:04;;;;;;;18.48;13.32;;;11.90;99.90;;;;;;5015659;28;20092;-91
2021/05/12 06:25:32;;;;;;;19.08;12.77;;;12.00;99.90;;;;;;5016182;28;20064;-91
2021/05/12 06:28:07;;;;;;;19.88;13.30;;;12.20;99.90;;;;;;5016009;28;20108;-93
2021/05/12 06:30:48;;;;;;;18.60;13.07;;;12.50;99.90;;;;;;5000567;28;20049;-93
2021/05/12 06:33:15;;;;;;;23.98;13.93;;;12.30;99.90;;;;;;5033129;28;20045;-93
2021/05/12 06:35:42;;;;;;;19.45;13.60;;;12.40;99.90;;;;;;5020288;28;20046;-93
2021/05/12 06:38:09;;;;;;;19.13;14.07;;;12.40;99.90;;;;;;5016737;28;20057;-90
2021/05/12 06:40:37;;;;;;;22.02;13.85;;;12.30;99.90;;;;;;5018042;28;20136;-91
2021/05/12 06:43:06;;;;;;;17.85;13.38;;;12.30;99.90;;;;;;5018169;28;20054;-94
2021/05/12 06:45:33;;;;;;;18.95;13.20;;;12.30;99.90;;;;;;5012147;28;20054;-93
2021/05/12 06:48:02;;;;;;;16.55;11.93;;;12.30;99.90;;;;;;5037013;28;20461;-92
2021/05/12 06:50:31;;;;;;;22.05;12.73;;;12.40;99.90;;;;;;5042664;28;20048;-93
2021/05/12 06:52:59;;;;;;;16.85;11.63;;;12.50;99.90;;;;;;5018261;28;20549;-92
2021/05/12 06:55:29;;;;;;;17.80;12.63;;;12.60;99.90;;;;;;5021088;28;20069;-93
2021/05/12 06:57:57;;;;;;;14.55;10.15;;;12.70;99.90;;;;;;5036294;28;20382;-93
2021/05/12 07:00:25;;;;;;;14.30;9.95;;;12.80;99.90;;;;;;5035912;28;20046;-94
2021/05/12 07:02:52;;;;;;;10.13;8.10;;;12.80;99.90;;;;;;5019312;28;20080;-92
2021/05/12 07:05:21;;;;;;;12.10;8.30;;;12.90;99.90;;;;;;5051645;28;20057;-93
2021/05/12 07:07:49;;;;;;;11.80;7.97;;;13.00;99.90;;;;;;5020187;28;20068;-93
2021/05/12 07:10:17;;;;;;;10.35;7.20;;;13.10;99.90;;;;;;5037090;28;20508;-94
2021/05/12 07:12:49;;;;;;;11.90;7.80;;;13.20;99.90;;;;;;5037354;28;20081;-94
2021/05/12 07:15:17;;;;;;;12.57;8.10;;;13.30;99.90;;;;;;5036802;28;20107;-89
2021/05/12 07:17:44;;;;;;;13.50;6.85;;;13.30;99.90;;;;;;5036104;28;20069;-76
2021/05/12 07:20:17;;;;;;;10.05;6.78;;;13.20;99.90;;;;;;5049909;28;20073;-89
2021/05/12 07:22:48;;;;;;;11.13;6.20;;;13.20;99.90;;;;;;5035770;28;20041;-87
2021/05/12 07:25:15;;;;;;;12.43;6.40;;;13.10;99.90;;;;;;5050107;28;20072;-88
2021/05/12 07:27:43;;;;;;;13.88;6.10;;;13.20;99.90;;;;;;5035316;28;20052;-89
2021/05/12 07:30:15;;;;;;;9.60;5.07;;;13.30;99.90;;;;;;5024117;28;20121;-89
2021/05/12 07:32:47;;;;;;;8.35;5.00;;;13.30;99.90;;;;;;5026639;28;20037;-88
2021/05/12 07:35:14;;;;;;;8.52;4.82;;;13.30;99.90;;;;;;5016213;28;20046;-88
2021/05/12 07:37:42;;;;;;;6.25;4.35;;;13.40;99.90;;;;;;5044669;28;20065;-91
2021/05/12 07:40:09;;;;;;;11.32;4.20;;;13.60;99.90;;;;;;5026431;28;20045;-77
2021/05/12 07:42:44;;;;;;;7.10;4.10;;;13.70;99.90;;;;;;5044599;28;20045;-78
2021/05/12 07:45:17;;;;;;;6.82;4.10;;;13.70;99.90;;;;;;5032316;28;20049;-77
2021/05/12 07:47:48;;;;;;;9.95;4.20;;;13.80;99.90;;;;;;5047079;28;20049;-78
2021/05/12 07:50:15;;;;;;;9.15;4.28;;;13.90;99.90;;;;;;5048563;28;20537;-78
2021/05/12 07:52:42;;;;;;;10.65;5.03;;;13.80;99.90;;;;;;5035985;28;20091;-78
2021/05/12 07:55:10;;;;;;;9.15;4.60;;;13.70;99.90;;;;;;5052176;28;20053;-78
2021/05/12 07:57:39;;;;;;;8.55;4.25;;;13.80;99.90;;;;;;5070334;28;20477;-79
2021/05/12 08:00:08;;;;;;;10.93;4.53;;;13.80;99.90;;;;;;5052153;28;20389;-77
2021/05/12 08:02:35;;;;;;;9.43;4.53;;;14.00;99.90;;;;;;5070013;28;20049;-78
2021/05/12 08:05:03;;;;;;;8.85;4.20;;;14.10;99.90;;;;;;5070132;28;20161;-78
2021/05/12 08:07:49;;;;;;;9.60;4.38;;;14.20;99.90;;;;;;5042273;28;20053;-78
2021/05/12 08:10:36;;;;;;;8.40;4.57;;;14.20;99.90;;;;;;5055225;28;20140;-78
2021/05/12 08:13:12;;;;;;;6.65;3.70;;;14.20;99.90;;;;;;5070484;28;20049;-91
2021/05/12 08:15:39;;;;;;;10.32;3.78;;;14.10;99.90;;;;;;5054051;28;20046;-90
2021/05/12 08:18:06;;;;;;;7.22;3.30;;;14.20;99.90;;;;;;5036955;28;20500;-87
2021/05/12 08:20:35;;;;;;;7.85;3.15;;;14.20;99.90;;;;;;5037755;28;20079;-87
2021/05/12 08:23:04;;;;;;;8.73;3.40;;;14.30;99.90;;;;;;5022468;28;20051;-87
2021/05/12 08:25:31;;;;;;;8.98;3.05;;;14.50;99.90;;;;;;5020573;28;20041;-88
2021/05/12 08:27:58;;;;;;;6.50;2.88;;;14.70;99.90;;;;;;5050280;28;20044;-87
2021/05/12 08:30:27;;;;;;;9.05;2.70;;;14.80;99.90;;;;;;5020471;28;20124;-86
2021/05/12 08:32:56;;;;;;;9.15;3.10;;;15.00;99.90;;;;;;5086898;28;20478;-87
2021/05/12 08:35:45;;;;;;;6.97;2.70;;;15.00;99.90;;;;;;5029245;28;20568;-88
2021/05/12 08:38:16;;;;;;;6.72;2.75;;;15.10;99.90;;;;;;5052385;28;20045;-87
2021/05/12 08:40:45;;;;;;;7.32;2.67;;;15.20;99.90;;;;;;5052984;28;20136;-87
2021/05/12 08:43:13;;;;;;;7.55;2.22;;;15.30;99.90;;;;;;5036405;28;20409;-87
2021/05/12 08:45:44;;;;;;;5.10;2.15;;;15.40;99.90;;;;;;5053007;28;20111;-87
2021/05/12 08:48:16;;;;;;;4.68;2.30;;;15.40;99.90;;;;;;5036855;28;20091;-87
2021/05/12 08:50:44;;;;;;;7.53;2.60;;;15.50;99.90;;;;;;5037017;28;20453;-87
2021/05/12 08:53:11;;;;;;;8.10;2.42;;;15.60;99.90;;;;;;5052556;28;20075;-87
2021/05/12 08:55:38;;;;;;;7.05;2.10;;;15.70;99.90;;;;;;5036849;28;20049;-87
2021/05/12 08:58:05;;;;;;;6.30;2.00;;;15.60;99.90;;;;;;5052691;28;20045;-88
2021/05/12 09:00:33;;;;;;;5.15;1.60;;;15.80;99.90;;;;;;5003493;28;20095;-87
2021/05/12 09:03:01;;;;;;;5.28;1.85;;;16.00;99.90;;;;;;5035572;28;20480;-89
2021/05/12 09:05:29;;;;;;;6.63;1.48;;;16.00;99.90;;;;;;5019586;28;20045;-87
2021/05/12 09:08:03;;;;;;;4.85;1.38;;;16.10;99.90;;;;;;5053122;28;20116;-90
2021/05/12 09:10:30;;;;;;;5.35;1.20;;;16.00;99.90;;;;;;5052257;28;20049;-88
2021/05/12 09:12:59;;;;;;;6.32;1.40;;;16.10;99.90;;;;;;5036071;28;20120;-88
2021/05/12 09:15:29;;;;;;;5.07;1.17;;;16.20;99.90;;;;;;5035907;28;20049;-88
2021/05/12 09:18:00;;;;;;;4.72;1.10;;;16.10;99.90;;;;;;5036602;28;20096;-89
2021/05/12 09:20:33;;;;;;;5.20;0.80;;;16.20;99.90;;;;;;5036050;28;20053;-88
2021/05/12 09:23:00;;;;;;;4.10;1.10;;;16.20;98.70;;;;;;5052657;28;20103;-88
2021/05/12 09:25:28;;;;;;;2.20;0.80;;;16.10;95.20;;;;;;5051532;28;20046;-89
2021/05/12 09:28:12;;;;;;;4.07;1.55;;;16.20;94.30;;;;;;5036412;28;20049;-89
2021/05/12 09:30:45;;;;;;;2.70;0.88;;;16.10;92.60;;;;;;5035543;28;20060;-88
2021/05/12 09:33:26;;;;;;;4.03;0.80;;;16.20;95.90;;;;;;5052700;28;20037;-88
2021/05/12 09:35:53;;;;;;;4.00;1.00;;;16.40;95.20;;;;;;5068197;28;20272;-88
2021/05/12 09:38:22;;;;;;;4.15;1.35;;;16.50;96.70;;;;;;5067717;28;20033;-87
2021/05/12 09:41:12;;;;;;;4.30;0.93;;;16.50;96.40;;;;;;5068864;28;20049;-88
2021/05/12 09:43:51;;;;;;;9.20;1.73;;;16.50;95.20;;;;;;5066656;28;20049;-89
2021/05/12 09:46:28;;;;;;;4.45;1.40;;;16.60;94.40;;;;;;5036767;28;20056;-88
2021/05/12 09:49:01;;;;;;;4.70;1.38;;;16.70;95.00;;;;;;5052228;28;20045;-87
2021/05/12 09:51:33;;;;;;;2.67;1.08;;;16.80;95.70;;;;;;5068618;28;20041;-88
2021/05/12 09:54:01;;;;;;;6.30;1.33;;;16.90;95.40;;;;;;5051977;28;20052;-87
2021/05/12 09:56:38;;;;;;;4.20;1.10;;;16.90;95.30;;;;;;5051249;28;20055;-87
2021/05/12 09:59:10;;;;;;;5.88;1.30;;;17.00;95.30;;;;;;5051588;28;20049;-88
2021/05/12 10:01:41;;;;;;;5.88;1.35;;;17.20;97.00;;;;;;5036077;28;20485;-89
2021/05/12 10:04:19;;;;;;;3.63;1.08;;;17.40;97.00;;;;;;5052133;28;20045;-88
2021/05/12 10:06:52;;;;;;;6.50;1.33;;;17.50;93.60;;;;;;5019854;28;20048;-88
2021/05/12 10:09:21;;;;;;;3.80;1.35;;;17.50;91.70;;;;;;5019733;28;20053;-89
2021/05/12 10:12:06;;;;;;;7.65;1.42;;;17.30;94.20;;;;;;5019695;28;20468;-90
2021/05/12 10:14:36;;;;;;;3.78;1.10;;;17.10;92.20;;;;;;5068816;28;20053;-89
2021/05/12 10:17:09;;;;;;;5.85;1.30;;;17.30;93.90;;;;;;5035644;28;20156;-88
2021/05/12 10:19:36;;;;;;;5.90;1.27;;;17.30;90.40;;;;;;5051388;28;20038;-89
2021/05/12 10:22:05;;;;;;;5.75;1.25;;;17.40;91.90;;;;;;5050285;28;20057;-86
2021/05/12 10:24:34;;;;;;;5.82;1.20;;;17.20;90.80;;;;;;5050217;28;20497;-86
2021/05/12 10:27:16;;;;;;;4.88;1.20;;;17.10;90.60;;;;;;5050566;28;20531;-87
2021/05/12 10:29:52;;;;;;;6.22;1.20;;;17.20;91.70;;;;;;5050033;28;20115;-85
2021/05/12 10:32:22;;;;;;;;;;;17.20;92.30;;;;;;5050939;28;20053;-85
2021/05/12 10:34:59;;;;;;;6.72;1.35;;;17.10;93.00;;;;;;5050389;28;19920;-87
2021/05/12 10:37:29;;;;;;;4.95;1.30;;;17.10;91.80;;;;;;5050324;28;20131;-85
2021/05/12 10:40:20;;;;;;;5.47;1.25;;;17.10;92.90;;;;;;5068197;28;20053;-86
2021/05/12 10:43:17;;;;;;;4.82;1.10;;;17.20;92.40;;;;;;5050316;28;20042;-85
2021/05/12 10:45:50;;;;;;;5.22;1.33;;;17.20;93.30;;;;;;5066710;28;20045;-86
2021/05/12 10:48:33;;;;;;;5.68;1.30;;;17.30;94.20;;;;;;5050844;28;20128;-87
2021/05/12 10:51:04;;;;;;;5.57;1.48;;;17.20;92.00;;;;;;5066882;28;20048;-85
2021/05/12 10:53:42;;;;;;;4.75;1.20;;;17.20;92.80;;;;;;5067598;28;20417;-86
2021/05/12 10:56:11;;;;;;;4.95;1.33;;;17.10;93.70;;;;;;5018588;28;20053;-87
2021/05/12 10:58:56;;;;;;;4.80;1.10;;;17.10;94.80;;;;;;5050086;28;20045;-85
2021/05/12 11:01:25;;;;;;;5.63;1.40;;;16.90;92.80;;;;;;5067055;28;20049;-87
2021/05/12 11:03:54;;;;;;;5.78;1.33;;;16.80;93.90;;;;;;5066767;28;20046;-87
2021/05/12 11:06:45;;;;;;;6.25;1.30;;;16.70;95.10;;;;;;5050914;28;20046;-86
2021/05/12 11:09:19;;;;;;;6.60;1.60;;;16.90;95.80;;;;;;5050005;28;20045;-86
2021/05/12 11:11:45;;;;;;;7.13;1.58;;;16.90;94.50;;;;;;5017831;28;20057;-85
2021/05/12 11:14:26;;;;;;;5.20;1.60;;;16.80;95.20;;;;;;5050763;28;20071;-86
2021/05/12 11:17:10;;;;;;;7.57;1.70;;;16.80;95.60;;;;;;5049786;28;20056;-85
2021/05/12 11:19:40;;;;;;;5.50;1.65;;;16.80;95.50;;;;;;5050165;28;20052;-84
2021/05/12 11:22:38;;;;;;;5.07;1.15;;;16.70;95.40;;;;;;5050317;28;20041;-85
2021/05/12 11:31:26;;;;;;;5.57;1.40;;;17.00;98.10;;;;;;5068329;28;20504;-91
2021/05/12 11:33:54;;;;;;;8.93;1.67;;;17.40;95.30;;;;;;5032366;28;20518;-90
2021/05/12 11:36:27;;;;;;;5.88;1.30;;;17.80;94.90;;;;;;5020955;28;20050;-91
2021/05/12 11:38:54;;;;;;;7.03;1.35;;;18.00;93.70;;;;;;5004179;28;20072;-90
2021/05/12 11:41:24;;;;;;;5.80;1.40;;;17.70;92.40;;;;;;5004453;28;20424;-89
2021/05/12 11:43:56;;;;;;;7.63;1.52;;;17.90;92.70;;;;;;5023616;28;20041;-89
2021/05/12 11:46:45;;;;;;;6.65;1.50;;;17.80;92.20;;;;;;5035921;28;20041;-89
2021/05/12 11:49:14;;;;;;;4.80;1.35;;;17.80;91.60;;;;;;5038963;28;20049;-90
2021/05/12 11:51:42;;;;;;;5.63;1.50;;;17.40;93.00;;;;;;5029985;28;20048;-89
2021/05/12 11:54:16;;;;;;;6.32;1.40;;;17.20;93.00;;;;;;5022697;28;20053;-89
2021/05/12 11:56:46;;;;;;;5.95;1.30;;;17.10;94.10;;;;;;5054298;28;20080;-89
2021/05/12 11:59:21;;;;;;;7.38;1.50;;;17.30;93.60;;;;;;5053675;28;20401;-88
2021/05/12 12:01:55;;;;;;;;;;;17.70;92.20;;;;;;5039215;28;20051;-87
2021/05/12 12:04:30;;;;;;;6.00;1.50;;;18.10;92.70;;;;;;5053994;28;19924;-89
2021/05/12 12:06:59;;;;;;;6.00;1.38;;;18.20;91.80;;;;;;5054470;28;20041;-88
2021/05/12 12:09:27;;;;;;;7.93;1.67;;;18.10;91.30;;;;;;5021313;28;20049;-89
2021/05/12 12:12:11;;;;;;;6.57;1.55;;;18.10;91.70;;;;;;5036791;28;20045;-88
2021/05/12 12:14:38;;;;;;;6.03;1.38;;;18.00;90.90;;;;;;5053697;28;20045;-88
2021/05/12 12:17:12;;;;;;;6.20;1.75;;;17.80;90.70;;;;;;5037804;28;20053;-88
2021/05/12 12:19:40;;;;;;;8.75;2.08;;;17.60;90.80;;;;;;5037638;28;20055;-88
2021/05/12 12:22:07;;;;;;;12.32;2.92;;;17.60;93.60;;;;;;5021702;28;20061;-88
2021/05/12 12:24:35;;;;;;;10.98;2.75;;;17.40;99.80;;;;;;5021160;28;20481;-87
2021/05/12 12:27:03;;;;;;;16.67;3.13;;;17.30;99.90;;;;;;5005338;28;20041;-87
2021/05/12 12:29:32;;;;;;;11.73;2.67;;;17.10;99.90;;;;;;5037909;28;20037;-88
2021/05/12 12:32:06;;;;;;;10.45;2.60;;;17.00;99.90;;;;;;5037804;28;20497;-88
2021/05/12 12:34:35;;;;;;;13.63;2.70;;;17.00;99.90;;;;;;5041013;28;20050;-89
2021/05/12 12:37:11;;;;;;;12.18;3.10;;;16.80;99.90;;;;;;5017941;28;20058;-91
2021/05/12 12:39:40;;;;;;;13.45;3.58;;;16.70;99.90;;;;;;5021216;28;20046;-92
2021/05/12 12:42:08;;;;;;;14.13;2.88;;;16.70;99.90;;;;;;5040816;28;20030;-90
2021/05/12 12:44:36;;;;;;;12.52;2.63;;;16.60;99.90;;;;;;5021559;28;20095;-91
2021/05/12 12:47:11;;;;;;;11.90;2.88;;;16.80;99.90;;;;;;5021340;28;20121;-89
2021/05/12 12:49:47;;;;;;;13.63;2.92;;;17.00;99.90;;;;;;5038458;28;20049;-89
2021/05/12 12:52:26;;;;;;;12.68;2.50;;;17.00;99.90;;;;;;5038101;28;20054;-90
2021/05/12 12:55:16;;;;;;;15.40;3.00;;;16.80;99.90;;;;;;5070786;28;20079;-90
2021/05/12 12:57:58;;;;;;;16.65;2.85;;;16.70;99.90;;;;;;5041041;28;20049;-90